Time;durP1;ratioP1;P1;durP2;ratioP2;P2;SDS_P1;SDS_P2;PMS_P1;PMS_P2;Temp;Humidity;BMP_temperature;BMP_pressure;BME280_temperature;BME280_humidity;BME280_pressure;Samples;Min_cycle;Max_cycle;Signal;HPM_P1;HPM_P2
2022/10/30 00:00:52;;;;;;;11.23;7.22;;;17.90;99.90;;;;;;5081860;28;20687;-32
2022/10/30 00:03:20;;;;;;;13.43;6.97;;;17.90;99.90;;;;;;5098576;28;20221;-32
2022/10/30 00:05:48;;;;;;;14.68;8.02;;;17.90;99.90;;;;;;5093510;28;20820;-32
2022/10/30 00:08:18;;;;;;;14.45;7.15;;;17.90;99.90;;;;;;5092750;28;20415;-32
2022/10/30 00:10:49;;;;;;;13.23;6.53;;;17.80;99.90;;;;;;5086455;28;20297;-31
2022/10/30 00:13:17;;;;;;;12.60;6.73;;;17.80;99.90;;;;;;5096559;28;20234;-32
2022/10/30 00:15:49;;;;;;;13.80;6.63;;;17.80;99.90;;;;;;5089905;28;20206;-32
2022/10/30 00:18:16;;;;;;;11.97;6.77;;;17.70;99.90;;;;;;5096286;28;20628;-32
2022/10/30 00:20:44;;;;;;;14.97;7.13;;;17.70;99.90;;;;;;5092724;28;20248;-32
2022/10/30 00:23:13;;;;;;;15.38;6.97;;;17.70;99.90;;;;;;5088107;28;20218;-32
2022/10/30 00:25:41;;;;;;;9.43;7.00;;;17.70;99.90;;;;;;5086257;28;20711;-32
2022/10/30 00:28:08;;;;;;;14.10;6.95;;;17.60;99.90;;;;;;5102872;28;20301;-32
2022/10/30 00:30:37;;;;;;;11.50;6.30;;;17.60;99.90;;;;;;5086539;28;20194;-32
2022/10/30 00:33:07;;;;;;;12.00;7.38;;;17.60;99.90;;;;;;5088013;28;20400;-32
2022/10/30 00:35:34;;;;;;;12.30;6.47;;;17.50;99.90;;;;;;5089108;28;20297;-32
2022/10/30 00:38:01;;;;;;;15.35;7.10;;;17.50;99.90;;;;;;5091729;28;20274;-32
2022/10/30 00:40:29;;;;;;;9.63;6.65;;;17.50;99.90;;;;;;5095684;28;20232;-32
2022/10/30 00:42:56;;;;;;;10.03;6.20;;;17.40;99.90;;;;;;5094234;28;20220;-33
2022/10/30 00:45:23;;;;;;;13.82;6.80;;;17.40;99.90;;;;;;5094656;28;20190;-31
2022/10/30 00:48:01;;;;;;;11.88;6.25;;;17.40;99.90;;;;;;5094745;28;20290;-32
2022/10/30 00:50:33;;;;;;;14.43;5.80;;;17.30;99.90;;;;;;5093172;28;20210;-32
2022/10/30 00:53:05;;;;;;;14.20;6.13;;;17.30;99.90;;;;;;5095965;28;20199;-32
2022/10/30 00:55:49;;;;;;;9.10;5.67;;;17.30;99.90;;;;;;5094783;28;20194;-31
2022/10/30 00:58:22;;;;;;;11.33;5.80;;;17.30;99.90;;;;;;5096328;28;20282;-31
2022/10/30 01:00:55;;;;;;;10.13;5.70;;;17.30;99.90;;;;;;5097626;28;20842;-31
2022/10/30 01:03:25;;;;;;;10.65;5.80;;;17.20;99.90;;;;;;5087083;28;20700;-32
2022/10/30 01:05:59;;;;;;;8.40;5.70;;;17.20;99.90;;;;;;5088098;28;20252;-32
2022/10/30 01:08:26;;;;;;;9.77;6.10;;;17.20;99.90;;;;;;5096607;28;20302;-31
2022/10/30 01:10:56;;;;;;;11.73;5.93;;;17.20;99.90;;;;;;5085231;28;20684;-32
2022/10/30 01:13:23;;;;;;;10.53;5.67;;;17.20;99.90;;;;;;5092308;28;20708;-31
2022/10/30 01:16:12;;;;;;;9.30;5.50;;;17.10;99.90;;;;;;5084619;28;20210;-31
2022/10/30 01:19:21;;;;;;;7.70;5.10;;;17.10;99.90;;;;;;5093837;28;20210;-31
2022/10/30 01:22:03;;;;;;;10.52;5.68;;;17.10;99.90;;;;;;5094353;28;20645;-31
2022/10/30 01:24:47;;;;;;;11.07;5.23;;;17.10;99.90;;;;;;5092706;28;20701;-32
2022/10/30 01:27:26;;;;;;;11.57;5.57;;;17.10;99.90;;;;;;5086386;28;20648;-31
2022/10/30 01:30:20;;;;;;;15.15;6.55;;;17.00;99.90;;;;;;5088548;28;20231;-31
2022/10/30 01:33:25;;;;;;;11.73;5.93;;;17.00;99.90;;;;;;5086746;28;20268;-31
2022/10/30 01:36:05;;;;;;;13.90;5.83;;;17.00;99.90;;;;;;5048260;28;20219;-32
2022/10/30 01:38:41;;;;;;;11.20;6.37;;;17.00;99.90;;;;;;5088558;28;20383;-31
2022/10/30 01:41:10;;;;;;;9.40;5.77;;;17.00;99.90;;;;;;5089064;28;20566;-31
2022/10/30 01:43:39;;;;;;;11.70;6.87;;;16.90;99.90;;;;;;5084731;28;20260;-32
2022/10/30 01:46:30;;;;;;;10.07;5.20;;;16.90;99.90;;;;;;5091584;28;20194;-31
2022/10/30 01:49:29;;;;;;;9.37;5.90;;;16.90;99.90;;;;;;5085654;28;20305;-32
2022/10/30 01:52:04;;;;;;;9.30;5.50;;;16.90;99.90;;;;;;5096927;28;20220;-32
2022/10/30 01:54:41;;;;;;;13.73;6.80;;;16.90;99.90;;;;;;5090360;28;20954;-31
2022/10/30 01:57:38;;;;;;;8.20;5.90;;;16.80;99.90;;;;;;5093927;28;20194;-32
2022/10/30 02:00:12;;;;;;;12.23;6.03;;;16.80;99.90;;;;;;5088396;28;20719;-31
2022/10/30 02:02:41;;;;;;;10.70;5.83;;;16.80;99.90;;;;;;5090963;28;20218;-32
2022/10/30 02:05:18;;;;;;;16.03;5.70;;;16.80;99.90;;;;;;5094124;28;20738;-31
2022/10/30 02:07:48;;;;;;;11.70;5.93;;;16.80;99.90;;;;;;5084420;28;20259;-32
2022/10/30 02:10:15;;;;;;;10.05;6.05;;;16.80;99.90;;;;;;5099994;28;20304;-32
2022/10/30 02:12:42;;;;;;;15.15;5.90;;;16.80;99.90;;;;;;5098801;27;20194;-34
2022/10/30 02:15:10;;;;;;;9.77;5.93;;;16.80;99.90;;;;;;5090378;28;20213;-32
2022/10/30 02:17:39;;;;;;;10.80;5.83;;;16.80;99.90;;;;;;5087282;28;20249;-33
2022/10/30 02:20:13;;;;;;;11.73;5.73;;;16.80;99.90;;;;;;5090630;28;20324;-32
2022/10/30 02:22:42;;;;;;;11.27;5.60;;;16.70;99.90;;;;;;5090300;28;20718;-32
2022/10/30 02:25:10;;;;;;;15.13;6.00;;;16.70;99.90;;;;;;5094341;28;20191;-32
2022/10/30 02:27:37;;;;;;;12.63;6.93;;;16.70;99.90;;;;;;5084680;28;20329;-32
2022/10/30 02:30:04;;;;;;;10.57;6.00;;;16.70;99.90;;;;;;5088162;28;20202;-32
2022/10/30 02:32:33;;;;;;;13.93;5.93;;;16.70;99.90;;;;;;5101920;28;20287;-32
2022/10/30 02:35:03;;;;;;;10.17;5.90;;;16.70;99.90;;;;;;5091437;28;20234;-32
2022/10/30 02:37:34;;;;;;;12.87;6.27;;;16.60;99.90;;;;;;5086990;28;20771;-32
2022/10/30 02:40:03;;;;;;;10.33;5.97;;;16.60;99.90;;;;;;5098106;28;20226;-31
2022/10/30 02:42:30;;;;;;;11.13;5.23;;;16.60;99.90;;;;;;5097436;28;20202;-33
2022/10/30 02:45:00;;;;;;;9.63;6.10;;;16.60;99.90;;;;;;5087558;28;20661;-32
2022/10/30 02:47:30;;;;;;;13.73;6.03;;;16.60;99.90;;;;;;5095837;28;20581;-33
2022/10/30 02:49:57;;;;;;;14.00;6.30;;;16.60;99.90;;;;;;5092106;28;20606;-34
2022/10/30 02:52:24;;;;;;;10.87;6.30;;;16.60;99.90;;;;;;5085060;28;20214;-32
2022/10/30 02:54:51;;;;;;;10.87;5.27;;;16.60;99.90;;;;;;5088570;28;20193;-32
2022/10/30 02:57:19;;;;;;;13.87;6.27;;;16.50;99.90;;;;;;5094009;28;20627;-32
2022/10/30 02:59:46;;;;;;;10.23;5.87;;;16.50;99.90;;;;;;5095710;28;20190;-32
2022/10/30 03:02:13;;;;;;;14.83;5.90;;;16.50;99.90;;;;;;5085809;28;20799;-33
2022/10/30 03:04:40;;;;;;;12.53;5.97;;;16.50;99.90;;;;;;5098127;28;20268;-31
2022/10/30 03:07:07;;;;;;;10.03;6.07;;;16.40;99.90;;;;;;5092380;28;20244;-32
2022/10/30 03:09:34;;;;;;;10.40;5.90;;;16.40;99.90;;;;;;5094974;28;20594;-33
2022/10/30 03:12:02;;;;;;;13.95;6.25;;;16.40;99.90;;;;;;5091565;28;20238;-32
2022/10/30 03:14:31;;;;;;;10.53;5.63;;;16.40;99.90;;;;;;5092491;28;20289;-32
2022/10/30 03:16:58;;;;;;;12.70;5.70;;;16.30;99.90;;;;;;5087463;28;20280;-32
2022/10/30 03:19:25;;;;;;;9.37;5.73;;;16.40;99.90;;;;;;5085404;28;20234;-32
2022/10/30 03:21:53;;;;;;;12.13;6.20;;;16.30;99.90;;;;;;5092025;28;20272;-32
2022/10/30 03:24:20;;;;;;;12.63;5.45;;;16.30;99.90;;;;;;5089665;28;20785;-32
2022/10/30 03:26:47;;;;;;;12.03;5.67;;;16.30;99.90;;;;;;5090912;28;20276;-32
2022/10/30 03:29:15;;;;;;;13.37;5.90;;;16.30;99.90;;;;;;5088761;28;20300;-32
2022/10/30 03:31:42;;;;;;;12.80;6.40;;;16.30;99.90;;;;;;5085012;28;20843;-32
2022/10/30 03:34:09;;;;;;;10.80;5.53;;;16.30;99.90;;;;;;5095896;28;20606;-32
2022/10/30 03:36:39;;;;;;;11.47;5.60;;;16.30;99.90;;;;;;5095254;28;20566;-32
2022/10/30 03:39:06;;;;;;;9.50;5.73;;;16.30;99.90;;;;;;5084582;28;20745;-32
2022/10/30 03:41:33;;;;;;;15.02;6.30;;;16.30;99.90;;;;;;5090827;28;20199;-32
2022/10/30 03:44:03;;;;;;;12.40;6.23;;;16.30;99.90;;;;;;5093808;28;20209;-32
2022/10/30 03:46:30;;;;;;;9.87;5.47;;;16.20;99.90;;;;;;5095786;28;20233;-32
2022/10/30 03:49:00;;;;;;;9.23;5.20;;;16.20;99.90;;;;;;5089372;28;20543;-32
2022/10/30 03:51:31;;;;;;;11.60;6.03;;;16.20;99.90;;;;;;5096058;28;20599;-32
2022/10/30 03:53:58;;;;;;;12.03;6.00;;;16.20;99.90;;;;;;5089256;28;20218;-32
2022/10/30 03:56:28;;;;;;;11.48;6.18;;;16.20;99.90;;;;;;5090245;28;20553;-32
2022/10/30 03:58:55;;;;;;;9.60;6.03;;;16.20;99.90;;;;;;5099277;28;20774;-32
2022/10/30 04:01:25;;;;;;;10.53;5.57;;;16.20;99.90;;;;;;5089122;28;20221;-32
2022/10/30 04:03:52;;;;;;;11.87;6.00;;;16.20;99.90;;;;;;5097199;28;20578;-32
2022/10/30 04:06:19;;;;;;;9.20;5.30;;;16.20;99.90;;;;;;5087252;28;20225;-32
2022/10/30 04:08:46;;;;;;;10.27;5.40;;;16.20;99.90;;;;;;5092280;28;20500;-32
2022/10/30 04:11:14;;;;;;;10.90;5.63;;;16.20;99.90;;;;;;5086414;28;20264;-32
2022/10/30 04:13:41;;;;;;;10.13;5.73;;;16.20;99.90;;;;;;5098736;28;20548;-32
2022/10/30 04:16:08;;;;;;;11.50;6.17;;;16.20;99.90;;;;;;5092664;28;20203;-33
2022/10/30 04:18:35;;;;;;;10.97;6.30;;;16.20;99.90;;;;;;5092747;28;20293;-32
2022/10/30 04:21:07;;;;;;;7.93;5.20;;;16.20;99.90;;;;;;5088373;27;20297;-32
2022/10/30 04:23:38;;;;;;;13.53;6.10;;;16.10;99.90;;;;;;5097862;28;20222;-32
2022/10/30 04:26:06;;;;;;;7.77;5.90;;;16.10;99.90;;;;;;5084988;28;20199;-32
2022/10/30 04:28:33;;;;;;;11.43;5.63;;;16.10;99.90;;;;;;5100119;28;20306;-32
2022/10/30 04:31:02;;;;;;;8.73;5.87;;;16.10;99.90;;;;;;5088619;28;20207;-32
2022/10/30 04:33:29;;;;;;;9.97;6.20;;;16.10;99.90;;;;;;5097566;28;20229;-32
2022/10/30 04:35:56;;;;;;;10.60;6.20;;;16.10;99.90;;;;;;5094676;28;20237;-32
2022/10/30 04:38:26;;;;;;;9.00;5.23;;;16.00;99.90;;;;;;5102695;28;20579;-32
2022/10/30 04:40:53;;;;;;;12.23;5.80;;;16.00;99.90;;;;;;5091930;28;20738;-32
2022/10/30 04:43:22;;;;;;;9.53;5.50;;;16.00;99.90;;;;;;5101110;28;20215;-32
2022/10/30 04:45:50;;;;;;;9.30;5.97;;;16.00;99.90;;;;;;5092899;28;20222;-32
2022/10/30 04:48:18;;;;;;;11.40;5.80;;;16.00;99.90;;;;;;5086802;28;20669;-32
2022/10/30 04:50:45;;;;;;;10.83;5.60;;;16.00;99.90;;;;;;5099791;28;20564;-32
2022/10/30 04:53:15;;;;;;;10.43;6.30;;;16.00;99.90;;;;;;5106230;28;20255;-31
2022/10/30 04:55:43;;;;;;;10.20;6.27;;;16.00;99.90;;;;;;5092490;28;20551;-33
2022/10/30 04:58:10;;;;;;;10.13;5.57;;;15.90;99.90;;;;;;5106517;28;20198;-32
2022/10/30 05:00:38;;;;;;;14.40;6.20;;;15.90;99.90;;;;;;5094745;28;20423;-32
2022/10/30 05:03:08;;;;;;;11.00;5.77;;;15.90;99.90;;;;;;5086715;28;20218;-32
2022/10/30 05:05:35;;;;;;;10.50;6.17;;;15.80;99.90;;;;;;5086367;28;20250;-32
2022/10/30 05:08:02;;;;;;;12.67;5.97;;;15.80;99.90;;;;;;5084795;28;20288;-32
2022/10/30 05:10:29;;;;;;;11.53;6.10;;;15.80;99.90;;;;;;5089346;28;20482;-32
2022/10/30 05:12:58;;;;;;;11.13;6.47;;;15.80;99.90;;;;;;5086532;28;20219;-32
2022/10/30 05:15:29;;;;;;;9.77;5.97;;;15.80;99.90;;;;;;5092222;28;20559;-32
2022/10/30 05:17:56;;;;;;;10.60;6.10;;;15.80;99.90;;;;;;5090102;28;20226;-32
2022/10/30 05:20:23;;;;;;;12.27;5.93;;;15.80;99.90;;;;;;5094590;28;20237;-32
2022/10/30 05:22:55;;;;;;;9.77;5.83;;;15.80;99.90;;;;;;5092352;28;20714;-32
2022/10/30 05:25:25;;;;;;;14.90;5.90;;;15.80;99.90;;;;;;5096208;28;20630;-32
2022/10/30 05:28:04;;;;;;;10.70;5.63;;;15.70;99.90;;;;;;5096698;28;20559;-31
2022/10/30 05:30:32;;;;;;;8.63;5.90;;;15.70;99.90;;;;;;5092154;28;20194;-32
2022/10/30 05:33:03;;;;;;;15.20;6.20;;;15.70;99.90;;;;;;5096924;28;20711;-31
2022/10/30 05:35:31;;;;;;;14.13;6.37;;;15.70;99.90;;;;;;5094864;28;20618;-32
2022/10/30 05:38:00;;;;;;;12.93;5.60;;;15.70;99.90;;;;;;5098147;28;20214;-32
2022/10/30 05:40:30;;;;;;;12.43;6.23;;;15.60;99.90;;;;;;5087788;28;20694;-33
2022/10/30 05:42:57;;;;;;;8.73;5.47;;;15.60;99.90;;;;;;5095761;28;20541;-32
2022/10/30 05:45:25;;;;;;;15.43;6.53;;;15.60;99.90;;;;;;5090770;28;20225;-33
2022/10/30 05:47:57;;;;;;;11.33;6.03;;;15.60;99.90;;;;;;5099772;28;20301;-32
2022/10/30 05:50:30;;;;;;;13.20;6.60;;;15.60;99.90;;;;;;5087781;28;20256;-32
2022/10/30 05:53:02;;;;;;;10.53;5.80;;;15.60;99.90;;;;;;5089923;28;20608;-33
2022/10/30 05:55:32;;;;;;;11.87;5.93;;;15.60;99.90;;;;;;5085488;28;20235;-32
2022/10/30 05:58:04;;;;;;;15.40;6.27;;;15.60;99.90;;;;;;5094465;28;20210;-32
2022/10/30 06:00:34;;;;;;;10.07;5.77;;;15.60;99.90;;;;;;5092410;28;20293;-33
2022/10/30 06:03:04;;;;;;;10.73;5.50;;;15.50;99.90;;;;;;5087214;28;20210;-33
2022/10/30 06:05:33;;;;;;;10.27;6.00;;;15.50;99.90;;;;;;5090160;28;20227;-34
2022/10/30 06:08:01;;;;;;;13.43;5.97;;;15.50;99.90;;;;;;5098609;28;20321;-32
2022/10/30 06:10:28;;;;;;;11.83;6.10;;;15.50;99.90;;;;;;5089390;28;20191;-33
2022/10/30 06:12:58;;;;;;;9.53;6.50;;;15.50;99.90;;;;;;5102388;28;20207;-32
2022/10/30 06:15:27;;;;;;;15.03;6.47;;;15.40;99.90;;;;;;5100899;28;20201;-32
2022/10/30 06:17:57;;;;;;;13.30;6.03;;;15.40;99.90;;;;;;5098017;28;20546;-32
2022/10/30 06:20:27;;;;;;;10.73;6.40;;;15.40;99.90;;;;;;5086207;28;20246;-32
2022/10/30 06:23:03;;;;;;;12.10;6.37;;;15.40;99.90;;;;;;5087896;28;20217;-32
2022/10/30 06:25:32;;;;;;;10.87;6.47;;;15.40;99.90;;;;;;5084067;28;20246;-32
2022/10/30 06:28:08;;;;;;;15.23;6.27;;;15.40;99.90;;;;;;5090484;28;20517;-32
2022/10/30 06:30:35;;;;;;;13.63;6.63;;;15.40;99.90;;;;;;5097053;28;20237;-32
2022/10/30 06:33:06;;;;;;;17.30;6.60;;;15.40;99.90;;;;;;5094889;28;20318;-32
2022/10/30 06:35:33;;;;;;;12.97;6.23;;;15.40;99.90;;;;;;5086897;28;20203;-32
2022/10/30 06:38:01;;;;;;;13.17;5.60;;;15.40;99.90;;;;;;5088883;28;20207;-32
2022/10/30 06:40:30;;;;;;;16.60;6.57;;;15.40;99.90;;;;;;5084022;28;20222;-32
2022/10/30 06:43:00;;;;;;;10.60;6.90;;;15.40;99.90;;;;;;5087326;28;20496;-32
2022/10/30 06:45:27;;;;;;;13.57;6.80;;;15.30;99.90;;;;;;5083441;28;20226;-32
2022/10/30 06:47:55;;;;;;;9.30;5.97;;;15.30;99.90;;;;;;5084296;28;20223;-32
2022/10/30 06:50:23;;;;;;;11.43;6.00;;;15.40;99.90;;;;;;5085796;28;20709;-32
2022/10/30 06:52:50;;;;;;;10.57;6.57;;;15.40;99.90;;;;;;5094625;28;20191;-32
2022/10/30 06:55:20;;;;;;;11.37;6.50;;;15.40;99.90;;;;;;5082737;28;20193;-32
2022/10/30 06:57:53;;;;;;;11.53;6.27;;;15.40;99.90;;;;;;5093898;28;20299;-33
2022/10/30 07:00:21;;;;;;;12.60;6.60;;;15.40;99.90;;;;;;5087704;28;20477;-32
2022/10/30 07:02:58;;;;;;;14.73;6.87;;;15.40;99.90;;;;;;5096225;28;20298;-32
2022/10/30 07:05:27;;;;;;;10.60;5.93;;;15.40;99.90;;;;;;5090331;28;20309;-32
2022/10/30 07:07:57;;;;;;;11.80;6.23;;;15.40;99.90;;;;;;5088955;28;20608;-32
2022/10/30 07:10:26;;;;;;;12.87;6.20;;;15.50;99.90;;;;;;5092716;28;20281;-32
2022/10/30 07:12:55;;;;;;;11.93;6.37;;;15.50;99.90;;;;;;5096050;28;20203;-32
2022/10/30 07:15:24;;;;;;;11.97;5.83;;;15.50;99.90;;;;;;5084452;28;20647;-32
2022/10/30 07:17:53;;;;;;;10.83;7.27;;;15.50;99.90;;;;;;5092999;28;20294;-32
2022/10/30 07:20:20;;;;;;;9.67;5.97;;;15.50;99.90;;;;;;5101959;28;20871;-32
2022/10/30 07:22:47;;;;;;;9.57;6.20;;;15.50;99.90;;;;;;5097370;28;20227;-32
2022/10/30 07:25:16;;;;;;;10.53;6.30;;;15.50;99.90;;;;;;5093883;28;20626;-32
2022/10/30 07:27:46;;;;;;;13.27;5.87;;;15.50;99.90;;;;;;5095948;28;20655;-32
2022/10/30 07:30:17;;;;;;;10.93;5.90;;;15.60;99.90;;;;;;5103092;28;20296;-32
2022/10/30 07:32:59;;;;;;;12.47;5.90;;;15.50;99.90;;;;;;5100986;28;20199;-32
2022/10/30 07:35:28;;;;;;;10.10;6.17;;;15.60;99.90;;;;;;5088694;28;20212;-32
2022/10/30 07:38:00;;;;;;;13.57;6.77;;;15.60;99.90;;;;;;5092597;28;20198;-32
2022/10/30 07:40:27;;;;;;;10.07;6.00;;;15.60;99.90;;;;;;5091259;28;20281;-32
2022/10/30 07:42:58;;;;;;;10.17;5.97;;;15.60;99.90;;;;;;5082492;28;20214;-32
2022/10/30 07:45:27;;;;;;;11.47;6.03;;;15.60;99.90;;;;;;5093704;28;20344;-32
2022/10/30 07:47:55;;;;;;;11.93;6.63;;;15.60;99.90;;;;;;5098383;28;20656;-32
2022/10/30 07:50:23;;;;;;;12.13;6.13;;;15.70;99.90;;;;;;5099661;28;20211;-32
2022/10/30 07:52:50;;;;;;;12.77;6.90;;;15.70;99.90;;;;;;5088894;28;20210;-31
2022/10/30 07:55:18;;;;;;;13.00;6.97;;;15.70;99.90;;;;;;5096069;28;20229;-31
2022/10/30 07:57:45;;;;;;;10.93;5.90;;;15.80;99.90;;;;;;5096748;28;20230;-31
2022/10/30 08:00:13;;;;;;;12.43;6.50;;;15.80;99.90;;;;;;5092061;28;20687;-31
2022/10/30 08:02:43;;;;;;;10.63;5.90;;;15.90;99.90;;;;;;5083706;28;20203;-31
2022/10/30 08:05:10;;;;;;;11.57;6.27;;;15.90;99.90;;;;;;5089333;28;20210;-31
2022/10/30 08:07:38;;;;;;;11.27;6.67;;;15.90;99.90;;;;;;5099477;28;20217;-31
2022/10/30 08:10:07;;;;;;;9.77;5.80;;;16.00;99.90;;;;;;5084649;28;20219;-32
2022/10/30 08:12:38;;;;;;;11.60;6.07;;;16.00;99.90;;;;;;5098756;28;20310;-33
2022/10/30 08:15:06;;;;;;;10.60;5.73;;;16.10;99.90;;;;;;5100829;28;20700;-30
2022/10/30 08:17:41;;;;;;;8.53;5.90;;;16.10;99.90;;;;;;5097564;28;20230;-31
2022/10/30 08:20:09;;;;;;;13.83;6.30;;;16.20;99.90;;;;;;5103918;28;20233;-31
2022/10/30 08:22:47;;;;;;;9.43;5.93;;;16.20;99.90;;;;;;5093104;28;20221;-32
2022/10/30 08:25:16;;;;;;;10.37;6.30;;;16.30;99.90;;;;;;5100919;28;20209;-31
2022/10/30 08:27:52;;;;;;;14.80;6.23;;;16.30;99.90;;;;;;5080228;28;20206;-32
2022/10/30 08:30:20;;;;;;;12.30;7.10;;;16.30;99.90;;;;;;5092444;28;20281;-32
2022/10/30 08:32:47;;;;;;;12.30;6.10;;;16.40;99.90;;;;;;5098424;28;20198;-32
2022/10/30 08:35:17;;;;;;;12.60;6.17;;;16.40;99.90;;;;;;5099213;28;20210;-31
2022/10/30 08:37:46;;;;;;;10.03;6.47;;;16.50;99.90;;;;;;5095836;28;20207;-31
2022/10/30 08:40:13;;;;;;;13.83;6.40;;;16.50;99.90;;;;;;5102608;28;20834;-31
2022/10/30 08:42:40;;;;;;;10.80;6.43;;;16.50;99.90;;;;;;5090280;28;20203;-31
2022/10/30 08:45:08;;;;;;;11.43;6.07;;;16.60;99.90;;;;;;5097575;28;20301;-31
2022/10/30 08:47:35;;;;;;;12.20;7.00;;;16.60;99.90;;;;;;5087544;28;20576;-31
2022/10/30 08:50:02;;;;;;;12.67;6.30;;;16.70;99.90;;;;;;5088906;28;20298;-31
2022/10/30 08:52:29;;;;;;;12.27;6.30;;;16.70;99.90;;;;;;5094290;28;20652;-31
2022/10/30 08:54:56;;;;;;;9.47;5.83;;;16.80;99.90;;;;;;5097672;28;20207;-32
2022/10/30 08:57:24;;;;;;;12.50;6.20;;;16.80;99.90;;;;;;5099278;28;20581;-31
2022/10/30 08:59:51;;;;;;;11.27;6.83;;;16.90;99.90;;;;;;5097626;28;20209;-31
2022/10/30 09:02:20;;;;;;;12.30;5.87;;;17.00;99.90;;;;;;5086202;28;20524;-31
2022/10/30 09:04:48;;;;;;;9.33;6.27;;;17.00;99.90;;;;;;5087375;28;20215;-31
2022/10/30 09:07:15;;;;;;;11.17;5.80;;;17.10;99.90;;;;;;5106411;28;20194;-31
2022/10/30 09:09:42;;;;;;;11.93;6.70;;;17.10;99.90;;;;;;5107329;28;20568;-32
2022/10/30 09:12:12;;;;;;;12.50;6.83;;;17.20;99.90;;;;;;5091879;28;20272;-31
2022/10/30 09:14:39;;;;;;;12.57;6.43;;;17.20;99.90;;;;;;5087281;28;20235;-31
2022/10/30 09:17:09;;;;;;;15.07;7.03;;;17.30;99.90;;;;;;5086581;28;20232;-32
2022/10/30 09:19:36;;;;;;;13.13;6.33;;;17.30;99.90;;;;;;5086205;28;20335;-32
2022/10/30 09:22:04;;;;;;;13.10;6.30;;;17.40;99.90;;;;;;5085776;28;20191;-32
2022/10/30 09:24:31;;;;;;;11.13;6.30;;;17.40;99.90;;;;;;5103642;28;20277;-32
2022/10/30 09:26:58;;;;;;;11.50;6.23;;;17.40;99.90;;;;;;5106709;28;20193;-33
2022/10/30 09:29:25;;;;;;;11.13;5.80;;;17.50;99.90;;;;;;5107649;28;20246;-32
2022/10/30 09:31:55;;;;;;;11.37;5.70;;;17.50;99.90;;;;;;5086777;28;20213;-31
2022/10/30 09:34:22;;;;;;;10.97;6.00;;;17.50;99.90;;;;;;5084787;28;20207;-31
2022/10/30 09:36:49;;;;;;;10.77;5.27;;;17.60;99.90;;;;;;5084727;28;20198;-31
2022/10/30 09:39:16;;;;;;;8.47;5.20;;;17.60;99.90;;;;;;5086033;28;20289;-33
2022/10/30 09:41:44;;;;;;;8.80;5.90;;;17.70;99.90;;;;;;5085866;28;20568;-31
2022/10/30 09:44:43;;;;;;;9.23;5.57;;;17.70;99.90;;;;;;5088187;28;20206;-32
2022/10/30 09:47:47;;;;;;;10.50;5.23;;;17.70;99.90;;;;;;5085899;28;20187;-31
2022/10/30 09:50:36;;;;;;;11.97;5.47;;;17.80;99.90;;;;;;5102307;28;20195;-30
2022/10/30 09:53:14;;;;;;;12.13;5.87;;;17.80;99.90;;;;;;5085482;28;20234;-32
2022/10/30 09:56:05;;;;;;;9.03;5.30;;;17.80;99.90;;;;;;5085752;28;20699;-31
2022/10/30 09:59:03;;;;;;;8.13;5.73;;;17.90;99.90;;;;;;5085780;28;20304;-31
2022/10/30 10:01:52;;;;;;;13.80;5.97;;;18.00;99.90;;;;;;5085580;28;20259;-31
2022/10/30 10:04:34;;;;;;;12.80;5.63;;;18.00;99.90;;;;;;5094166;28;20199;-31
2022/10/30 10:07:09;;;;;;;13.07;5.40;;;18.10;99.90;;;;;;5100368;28;20298;-31
2022/10/30 10:09:40;;;;;;;9.98;5.28;;;18.10;99.90;;;;;;5102025;28;20689;-31
2022/10/30 10:12:20;;;;;;;11.30;5.43;;;18.20;99.90;;;;;;5085573;28;20199;-32
2022/10/30 10:14:50;;;;;;;8.95;5.22;;;18.30;99.90;;;;;;5085619;28;20650;-32
2022/10/30 10:17:45;;;;;;;9.80;5.47;;;18.30;99.90;;;;;;5089211;28;20244;-31
2022/10/30 10:20:43;;;;;;;7.97;5.17;;;18.40;99.90;;;;;;5083757;28;20243;-31
2022/10/30 10:23:19;;;;;;;9.70;5.40;;;18.50;99.90;;;;;;5077719;28;20202;-32
2022/10/30 10:25:53;;;;;;;11.40;4.70;;;18.50;99.90;;;;;;5091342;28;20280;-32
2022/10/30 10:28:41;;;;;;;10.52;5.10;;;18.60;99.90;;;;;;5105869;28;20204;-32
2022/10/30 10:31:21;;;;;;;10.85;5.22;;;18.60;99.90;;;;;;5105523;28;20206;-31
2022/10/30 10:33:57;;;;;;;8.60;4.97;;;18.70;99.90;;;;;;5102261;28;20329;-32
2022/10/30 10:36:36;;;;;;;9.00;5.15;;;18.80;99.90;;;;;;5084141;28;20289;-32
2022/10/30 10:39:32;;;;;;;9.93;4.30;;;18.90;99.90;;;;;;5087227;28;20627;-32
2022/10/30 10:42:17;;;;;;;8.80;4.25;;;19.00;99.90;;;;;;5063292;28;20233;-32
2022/10/30 10:45:11;;;;;;;10.65;4.05;;;19.00;99.90;;;;;;5083078;28;20260;-32
2022/10/30 10:47:56;;;;;;;10.45;5.18;;;19.20;99.90;;;;;;5084201;28;20241;-32
2022/10/30 10:50:48;;;;;;;13.63;5.30;;;19.30;99.90;;;;;;5084080;28;20668;-32
2022/10/30 10:53:45;;;;;;;8.03;4.40;;;19.40;99.90;;;;;;5084262;28;20227;-32
2022/10/30 10:56:15;;;;;;;9.73;4.88;;;19.50;99.90;;;;;;5084240;28;20234;-32
2022/10/30 10:58:55;;;;;;;12.90;4.70;;;19.60;99.90;;;;;;5084922;28;20218;-32
2022/10/30 11:01:41;;;;;;;8.52;4.68;;;19.70;99.90;;;;;;5084369;28;20185;-31
2022/10/30 11:04:23;;;;;;;9.85;4.32;;;19.70;99.90;;;;;;5083911;28;20255;-32
2022/10/30 11:06:53;;;;;;;6.97;4.80;;;19.80;99.90;;;;;;5080698;28;20223;-32
2022/10/30 11:09:24;;;;;;;8.32;4.25;;;19.80;99.90;;;;;;5095146;28;20214;-32
2022/10/30 11:11:54;;;;;;;7.72;4.20;;;19.90;99.90;;;;;;5097800;28;20281;-32
2022/10/30 11:14:28;;;;;;;11.50;5.40;;;20.00;99.90;;;;;;5084957;28;20281;-32
2022/10/30 11:17:23;;;;;;;6.95;4.60;;;20.10;99.90;;;;;;5095161;28;20559;-31
2022/10/30 11:20:16;;;;;;;8.43;4.78;;;20.10;99.90;;;;;;5089911;28;20325;-31
2022/10/30 11:22:52;;;;;;;6.78;4.80;;;20.20;99.90;;;;;;5099643;28;20237;-31
2022/10/30 11:25:22;;;;;;;8.82;4.80;;;20.30;99.90;;;;;;5100376;28;20718;-31
2022/10/30 11:28:03;;;;;;;9.35;4.55;;;20.40;99.90;;;;;;5081913;28;20638;-33
2022/10/30 11:30:31;;;;;;;9.48;4.43;;;20.40;99.90;;;;;;5068463;28;20197;-33
2022/10/30 11:33:21;;;;;;;9.68;4.78;;;20.50;99.90;;;;;;5091254;28;20206;-33
2022/10/30 11:35:48;;;;;;;8.07;4.43;;;20.60;99.90;;;;;;5096667;28;20221;-33
2022/10/30 11:38:20;;;;;;;9.25;4.68;;;20.60;99.90;;;;;;5092045;28;20204;-33
2022/10/30 11:40:51;;;;;;;12.27;4.45;;;20.60;99.90;;;;;;5082127;28;20597;-33
2022/10/30 11:43:24;;;;;;;7.55;4.30;;;20.70;99.90;;;;;;5083455;28;20205;-32
2022/10/30 11:45:52;;;;;;;6.90;4.25;;;20.70;99.90;;;;;;5083450;28;20765;-33
2022/10/30 11:48:26;;;;;;;8.02;4.55;;;20.80;99.90;;;;;;5084776;28;20237;-33
2022/10/30 11:51:00;;;;;;;10.23;4.53;;;20.80;99.90;;;;;;5091261;28;20639;-33
2022/10/30 11:53:41;;;;;;;10.05;4.55;;;20.90;99.90;;;;;;5100954;28;20193;-33
2022/10/30 11:56:16;;;;;;;9.65;5.43;;;21.00;99.90;;;;;;5100910;28;20197;-33
2022/10/30 11:58:49;;;;;;;9.48;4.55;;;21.00;99.90;;;;;;5104523;28;20614;-33
2022/10/30 12:01:23;;;;;;;6.82;4.25;;;21.10;99.90;;;;;;5090687;28;20293;-33
2022/10/30 12:03:50;;;;;;;8.88;4.32;;;21.10;99.90;;;;;;5091328;28;20645;-33
2022/10/30 12:06:24;;;;;;;8.98;4.53;;;21.20;99.90;;;;;;5084334;28;20222;-33
2022/10/30 12:08:58;;;;;;;10.88;4.45;;;21.20;99.90;;;;;;5101947;28;20312;-33
2022/10/30 12:11:33;;;;;;;7.82;4.22;;;21.30;99.90;;;;;;5089079;28;20206;-33
2022/10/30 12:14:00;;;;;;;10.35;4.40;;;21.30;99.90;;;;;;5086404;28;20278;-34
2022/10/30 12:16:29;;;;;;;8.15;4.45;;;21.30;99.90;;;;;;5087020;28;20257;-33
2022/10/30 12:19:04;;;;;;;8.18;4.25;;;21.40;99.90;;;;;;5086148;28;20211;-33
2022/10/30 12:21:38;;;;;;;5.68;3.85;;;21.40;99.90;;;;;;5088037;28;20292;-33
2022/10/30 12:24:16;;;;;;;8.85;4.15;;;21.40;99.90;;;;;;5096754;28;20218;-33
2022/10/30 12:26:50;;;;;;;12.98;4.57;;;21.50;99.90;;;;;;5091433;28;20210;-33
2022/10/30 12:29:21;;;;;;;12.82;4.40;;;21.50;99.90;;;;;;5106864;28;20241;-33
2022/10/30 12:32:01;;;;;;;10.98;4.50;;;21.50;99.90;;;;;;5097985;28;20211;-33
2022/10/30 12:34:43;;;;;;;9.85;4.88;;;21.50;99.90;;;;;;5105467;28;20202;-33
2022/10/30 12:37:13;;;;;;;8.52;4.30;;;21.60;99.90;;;;;;5104360;28;20220;-33
2022/10/30 12:40:04;;;;;;;9.40;4.65;;;21.60;99.90;;;;;;5103226;28;20271;-33
2022/10/30 12:42:36;;;;;;;8.88;4.70;;;21.60;99.90;;;;;;5102663;28;20218;-34
2022/10/30 12:45:11;;;;;;;10.15;4.72;;;21.70;99.90;;;;;;5087539;28;20603;-33
2022/10/30 12:47:47;;;;;;;7.60;4.25;;;21.70;99.90;;;;;;5085913;28;20277;-32
2022/10/30 12:50:20;;;;;;;10.90;4.47;;;21.70;99.90;;;;;;5089064;28;20206;-33
2022/10/30 12:52:59;;;;;;;10.00;4.93;;;21.70;99.90;;;;;;5086396;28;20190;-33
2022/10/30 12:55:44;;;;;;;12.65;4.55;;;21.80;99.90;;;;;;5107010;28;20205;-33
2022/10/30 12:58:32;;;;;;;8.75;4.53;;;21.80;99.90;;;;;;5087066;28;20293;-33
2022/10/30 13:01:12;;;;;;;12.70;4.38;;;21.80;99.90;;;;;;5086295;28;20587;-33
2022/10/30 13:03:49;;;;;;;9.20;4.70;;;21.90;99.90;;;;;;5088224;28;20207;-31
2022/10/30 13:06:21;;;;;;;11.00;4.68;;;21.90;99.90;;;;;;5099220;28;20338;-32